sensor_id;sensor_type;location;lat;lon;timestamp;pressure;altitude;pressure_sealevel;temperature;humidity
13050;BME280;6591;51.446;5.404;2024-02-15T00:00:03;101381.56;;;19.16;60.92
13050;BME280;6591;51.446;5.404;2024-02-15T00:02:35;101386.00;;;19.17;60.82
13050;BME280;6591;51.446;5.404;2024-02-15T00:05:02;101378.00;;;19.16;60.98
13050;BME280;6591;51.446;5.404;2024-02-15T00:07:29;101386.00;;;19.17;60.82
13050;BME280;6591;51.446;5.404;2024-02-15T00:09:56;101386.09;;;19.16;60.91
13050;BME280;6591;51.446;5.404;2024-02-15T00:12:25;101383.53;;;19.14;61.08
13050;BME280;6591;51.446;5.404;2024-02-15T00:14:52;101376.44;;;19.13;60.69
13050;BME280;6591;51.446;5.404;2024-02-15T00:17:20;101380.19;;;19.11;60.72
13050;BME280;6591;51.446;5.404;2024-02-15T00:19:47;101373.97;;;19.10;60.56
13050;BME280;6591;51.446;5.404;2024-02-15T00:22:14;101374.94;;;19.09;60.73
13050;BME280;6591;51.446;5.404;2024-02-15T00:24:44;101371.47;;;19.07;60.57
13050;BME280;6591;51.446;5.404;2024-02-15T00:27:12;101376.97;;;19.05;60.72
13050;BME280;6591;51.446;5.404;2024-02-15T00:29:39;101380.66;;;19.04;60.76
13050;BME280;6591;51.446;5.404;2024-02-15T00:32:07;101370.84;;;19.03;60.80
13050;BME280;6591;51.446;5.404;2024-02-15T00:34:35;101377.09;;;19.04;60.77
13050;BME280;6591;51.446;5.404;2024-02-15T00:37:03;101370.94;;;19.02;60.68
13050;BME280;6591;51.446;5.404;2024-02-15T00:39:31;101378.16;;;19.01;60.55
13050;BME280;6591;51.446;5.404;2024-02-15T00:41:59;101358.47;;;19.01;60.77
13050;BME280;6591;51.446;5.404;2024-02-15T00:44:27;101362.13;;;19.00;61.04
13050;BME280;6591;51.446;5.404;2024-02-15T00:46:54;101359.41;;;19.00;60.85
13050;BME280;6591;51.446;5.404;2024-02-15T00:49:22;101366.53;;;19.01;60.92
13050;BME280;6591;51.446;5.404;2024-02-15T00:51:50;101360.28;;;19.00;60.92
13050;BME280;6591;51.446;5.404;2024-02-15T00:54:20;101364.81;;;19.00;60.88
13050;BME280;6591;51.446;5.404;2024-02-15T00:56:47;101364.81;;;19.00;60.91
13050;BME280;6591;51.446;5.404;2024-02-15T00:59:14;101364.81;;;19.00;60.64
13050;BME280;6591;51.446;5.404;2024-02-15T01:01:42;101360.53;;;18.97;60.96
13050;BME280;6591;51.446;5.404;2024-02-15T01:04:09;101364.19;;;18.96;60.83
13050;BME280;6591;51.446;5.404;2024-02-15T01:06:36;101370.41;;;18.97;60.95
13050;BME280;6591;51.446;5.404;2024-02-15T01:09:03;101365.03;;;18.97;60.79
13050;BME280;6591;51.446;5.404;2024-02-15T01:11:31;101359.66;;;18.97;61.00
13050;BME280;6591;51.446;5.404;2024-02-15T01:14:03;101345.34;;;18.96;60.93
13050;BME280;6591;51.446;5.404;2024-02-15T01:16:30;101356.09;;;18.96;60.85
13050;BME280;6591;51.446;5.404;2024-02-15T01:18:57;101360.53;;;18.97;60.99
13050;BME280;6591;51.446;5.404;2024-02-15T01:21:25;101351.59;;;18.97;60.84
13050;BME280;6591;51.446;5.404;2024-02-15T01:23:52;101349.00;;;18.95;60.76
13050;BME280;6591;51.446;5.404;2024-02-15T01:26:20;101349.13;;;18.94;60.81
13050;BME280;6591;51.446;5.404;2024-02-15T01:28:47;101347.41;;;18.93;60.43
13050;BME280;6591;51.446;5.404;2024-02-15T01:31:15;101342.22;;;18.90;60.43
13050;BME280;6591;51.446;5.404;2024-02-15T01:33:45;101344.19;;;18.88;60.40
13050;BME280;6591;51.446;5.404;2024-02-15T01:36:17;101339.13;;;18.83;60.35
13050;BME280;6591;51.446;5.404;2024-02-15T01:38:45;101340.97;;;18.83;60.23
13050;BME280;6591;51.446;5.404;2024-02-15T01:41:12;101337.41;;;18.82;60.38
13050;BME280;6591;51.446;5.404;2024-02-15T01:43:44;101335.78;;;18.80;60.22
13050;BME280;6591;51.446;5.404;2024-02-15T01:46:14;101330.41;;;18.80;60.51
13050;BME280;6591;51.446;5.404;2024-02-15T01:48:42;101331.25;;;18.80;60.71
13050;BME280;6591;51.446;5.404;2024-02-15T01:51:13;101333.09;;;18.80;60.58
13050;BME280;6591;51.446;5.404;2024-02-15T01:53:42;101324.91;;;18.81;60.84
13050;BME280;6591;51.446;5.404;2024-02-15T01:56:13;101329.44;;;18.81;60.74
13050;BME280;6591;51.446;5.404;2024-02-15T01:58:42;101323.84;;;18.84;60.59
13050;BME280;6591;51.446;5.404;2024-02-15T02:01:10;101323.84;;;18.84;60.80
13050;BME280;6591;51.446;5.404;2024-02-15T02:03:39;101314.69;;;18.86;60.52
13050;BME280;6591;51.446;5.404;2024-02-15T02:06:07;101311.03;;;18.87;60.86
13050;BME280;6591;51.446;5.404;2024-02-15T02:08:35;101312.84;;;18.87;60.55
13050;BME280;6591;51.446;5.404;2024-02-15T02:11:03;101312.09;;;18.85;60.35
13050;BME280;6591;51.446;5.404;2024-02-15T02:13:30;101320.28;;;18.83;60.25
13050;BME280;6591;51.446;5.404;2024-02-15T02:15:58;101311.34;;;18.83;60.14
13050;BME280;6591;51.446;5.404;2024-02-15T02:18:26;101309.88;;;18.79;59.75
13050;BME280;6591;51.446;5.404;2024-02-15T02:20:53;101305.78;;;18.73;59.55
13050;BME280;6591;51.446;5.404;2024-02-15T02:23:26;101297.28;;;18.67;59.62
13050;BME280;6591;51.446;5.404;2024-02-15T02:25:56;101300.06;;;18.65;59.43
13050;BME280;6591;51.446;5.404;2024-02-15T02:28:23;101293.19;;;18.61;59.76
13050;BME280;6591;51.446;5.404;2024-02-15T02:30:51;101297.94;;;18.57;59.80
13050;BME280;6591;51.446;5.404;2024-02-15T02:33:18;101294.50;;;18.55;59.84
13050;BME280;6591;51.446;5.404;2024-02-15T02:35:47;101292.84;;;18.53;60.42
13050;BME280;6591;51.446;5.404;2024-02-15T02:38:15;101286.72;;;18.51;60.18
13050;BME280;6591;51.446;5.404;2024-02-15T02:40:42;101282.22;;;18.51;60.27
13050;BME280;6591;51.446;5.404;2024-02-15T02:43:10;101275.09;;;18.50;60.24
13050;BME280;6591;51.446;5.404;2024-02-15T02:45:37;101279.53;;;18.51;60.22
13050;BME280;6591;51.446;5.404;2024-02-15T02:48:05;101285.00;;;18.50;60.47
13050;BME280;6591;51.446;5.404;2024-02-15T02:50:32;101277.78;;;18.50;60.17
13050;BME280;6591;51.446;5.404;2024-02-15T02:52:59;101287.59;;;18.51;60.46
13050;BME280;6591;51.446;5.404;2024-02-15T02:55:27;101292.97;;;18.51;60.48
13050;BME280;6591;51.446;5.404;2024-02-15T02:57:54;101285.75;;;18.52;60.43
13050;BME280;6591;51.446;5.404;2024-02-15T03:00:22;101285.63;;;18.53;60.40
13050;BME280;6591;51.446;5.404;2024-02-15T03:02:50;101287.41;;;18.54;60.39
13050;BME280;6591;51.446;5.404;2024-02-15T03:05:17;101285.47;;;18.56;60.45
13050;BME280;6591;51.446;5.404;2024-02-15T03:07:48;101277.25;;;18.58;60.45
13050;BME280;6591;51.446;5.404;2024-02-15T03:10:18;101272.75;;;18.58;60.57
13050;BME280;6591;51.446;5.404;2024-02-15T03:12:45;101275.34;;;18.60;60.32
13050;BME280;6591;51.446;5.404;2024-02-15T03:15:16;101276.09;;;18.62;60.73
13050;BME280;6591;51.446;5.404;2024-02-15T03:17:47;101276.97;;;18.63;60.53
13050;BME280;6591;51.446;5.404;2024-02-15T03:20:14;101273.16;;;18.65;60.60
13050;BME280;6591;51.446;5.404;2024-02-15T03:22:57;101267.06;;;18.63;60.41
13050;BME280;6591;51.446;5.404;2024-02-15T03:25:26;101271.34;;;18.66;60.60
13050;BME280;6591;51.446;5.404;2024-02-15T03:27:58;101276.63;;;18.67;60.40
13050;BME280;6591;51.446;5.404;2024-02-15T03:30:26;101276.50;;;18.69;60.50
13050;BME280;6591;51.446;5.404;2024-02-15T03:32:54;101282.63;;;18.71;60.35
13050;BME280;6591;51.446;5.404;2024-02-15T03:35:25;101276.38;;;18.70;60.39
13050;BME280;6591;51.446;5.404;2024-02-15T03:37:53;101276.38;;;18.70;60.33
13050;BME280;6591;51.446;5.404;2024-02-15T03:40:22;101271.00;;;18.70;60.56
13050;BME280;6591;51.446;5.404;2024-02-15T03:42:49;101265.53;;;18.72;60.38
13050;BME280;6591;51.446;5.404;2024-02-15T03:45:17;101264.56;;;18.73;60.50
13050;BME280;6591;51.446;5.404;2024-02-15T03:47:44;101265.44;;;18.73;60.62
13050;BME280;6591;51.446;5.404;2024-02-15T03:50:12;101258.31;;;18.72;60.59
13050;BME280;6591;51.446;5.404;2024-02-15T03:52:42;101255.50;;;18.74;60.34
13050;BME280;6591;51.446;5.404;2024-02-15T03:55:10;101267.13;;;18.74;60.60
13050;BME280;6591;51.446;5.404;2024-02-15T03:57:41;101268.94;;;18.74;60.47
13050;BME280;6591;51.446;5.404;2024-02-15T04:00:10;101263.34;;;18.77;60.66
13050;BME280;6591;51.446;5.404;2024-02-15T04:02:38;101263.34;;;18.77;60.67
13050;BME280;6591;51.446;5.404;2024-02-15T04:05:09;101264.13;;;18.79;60.75
13050;BME280;6591;51.446;5.404;2024-02-15T04:07:38;101260.44;;;18.80;60.53
13050;BME280;6591;51.446;5.404;2024-02-15T04:10:06;101272.91;;;18.81;60.83
13050;BME280;6591;51.446;5.404;2024-02-15T04:12:35;101271.00;;;18.83;60.59
13050;BME280;6591;51.446;5.404;2024-02-15T04:15:04;101267.34;;;18.84;60.67
13050;BME280;6591;51.446;5.404;2024-02-15T04:17:38;101279.78;;;18.85;60.76
13050;BME280;6591;51.446;5.404;2024-02-15T04:20:06;101269.88;;;18.85;60.43
13050;BME280;6591;51.446;5.404;2024-02-15T04:22:33;101267.34;;;18.84;60.48
13050;BME280;6591;51.446;5.404;2024-02-15T04:25:07;101274.66;;;18.82;60.78
13050;BME280;6591;51.446;5.404;2024-02-15T04:27:38;101255.81;;;18.82;60.80
13050;BME280;6591;51.446;5.404;2024-02-15T04:30:06;101245.91;;;18.82;60.82
13050;BME280;6591;51.446;5.404;2024-02-15T04:32:38;101244.19;;;18.81;60.51
13050;BME280;6591;51.446;5.404;2024-02-15T04:35:05;101247.75;;;18.82;60.72
13050;BME280;6591;51.446;5.404;2024-02-15T04:37:36;101247.75;;;18.82;60.72
13050;BME280;6591;51.446;5.404;2024-02-15T04:40:05;101236.97;;;18.82;60.74
13050;BME280;6591;51.446;5.404;2024-02-15T04:42:38;101242.34;;;18.82;60.65
13050;BME280;6591;51.446;5.404;2024-02-15T04:45:08;101229.88;;;18.81;60.68
13050;BME280;6591;51.446;5.404;2024-02-15T04:47:38;101235.25;;;18.81;60.78
13050;BME280;6591;51.446;5.404;2024-02-15T04:50:07;101233.53;;;18.80;60.43
13050;BME280;6591;51.446;5.404;2024-02-15T04:52:36;101227.19;;;18.81;60.67
13050;BME280;6591;51.446;5.404;2024-02-15T04:55:05;101224.59;;;18.79;60.73
13050;BME280;6591;51.446;5.404;2024-02-15T04:57:32;101227.19;;;18.81;60.93
13050;BME280;6591;51.446;5.404;2024-02-15T05:00:02;101219.09;;;18.81;60.57
13050;BME280;6591;51.446;5.404;2024-02-15T05:02:37;101217.19;;;18.83;60.87
13050;BME280;6591;51.446;5.404;2024-02-15T05:05:07;101216.31;;;18.82;60.49
13050;BME280;6591;51.446;5.404;2024-02-15T05:07:35;101224.28;;;18.84;60.74
13050;BME280;6591;51.446;5.404;2024-02-15T05:10:05;101227.94;;;18.83;60.83
13050;BME280;6591;51.446;5.404;2024-02-15T05:12:33;101225.25;;;18.83;60.92
13050;BME280;6591;51.446;5.404;2024-02-15T05:15:01;101222.56;;;18.83;60.75
13050;BME280;6591;51.446;5.404;2024-02-15T05:17:28;101226.09;;;18.83;60.93
13050;BME280;6591;51.446;5.404;2024-02-15T05:19:56;101231.34;;;18.85;60.63
13050;BME280;6591;51.446;5.404;2024-02-15T05:22:26;101230.38;;;18.86;60.84
13050;BME280;6591;51.446;5.404;2024-02-15T05:24:56;101240.19;;;18.87;60.70
13050;BME280;6591;51.446;5.404;2024-02-15T05:27:23;101236.53;;;18.88;60.75
13050;BME280;6591;51.446;5.404;2024-02-15T05:29:50;101246.19;;;18.90;60.99
13050;BME280;6591;51.446;5.404;2024-02-15T05:32:19;101243.50;;;18.90;60.88
13050;BME280;6591;51.446;5.404;2024-02-15T05:34:47;101244.38;;;18.91;60.76
13050;BME280;6591;51.446;5.404;2024-02-15T05:37:15;101250.50;;;18.93;60.69
13050;BME280;6591;51.446;5.404;2024-02-15T05:39:42;101245.13;;;18.93;61.00
13050;BME280;6591;51.446;5.404;2024-02-15T05:42:09;101242.53;;;18.91;60.74
13050;BME280;6591;51.446;5.404;2024-02-15T05:44:37;101248.53;;;18.95;60.74
13050;BME280;6591;51.446;5.404;2024-02-15T05:47:04;101239.63;;;18.94;60.83
13050;BME280;6591;51.446;5.404;2024-02-15T05:49:31;101230.69;;;18.94;60.65
13050;BME280;6591;51.446;5.404;2024-02-15T05:51:59;101225.31;;;18.94;60.66
13050;BME280;6591;51.446;5.404;2024-02-15T05:54:27;101224.56;;;18.92;60.85
13050;BME280;6591;51.446;5.404;2024-02-15T05:56:53;101218.41;;;18.90;60.60
13050;BME280;6591;51.446;5.404;2024-02-15T05:59:22;101218.41;;;18.90;60.52
13050;BME280;6591;51.446;5.404;2024-02-15T06:01:49;101231.16;;;18.88;60.52
13050;BME280;6591;51.446;5.404;2024-02-15T06:04:16;101227.69;;;18.86;60.51
13050;BME280;6591;51.446;5.404;2024-02-15T06:06:43;101226.97;;;18.84;60.74
13050;BME280;6591;51.446;5.404;2024-02-15T06:09:16;101209.09;;;18.83;60.73
13050;BME280;6591;51.446;5.404;2024-02-15T06:11:43;101199.31;;;18.82;60.78
13050;BME280;6591;51.446;5.404;2024-02-15T06:14:13;101205.56;;;18.82;60.68
13050;BME280;6591;51.446;5.404;2024-02-15T06:16:46;101194.03;;;18.80;60.69
13050;BME280;6591;51.446;5.404;2024-02-15T06:19:13;101194.03;;;18.80;60.58
13050;BME280;6591;51.446;5.404;2024-02-15T06:21:42;101195.84;;;18.80;60.83
13050;BME280;6591;51.446;5.404;2024-02-15T06:24:09;101186.81;;;18.81;60.88
13050;BME280;6591;51.446;5.404;2024-02-15T06:26:37;101185.09;;;18.80;60.82
13050;BME280;6591;51.446;5.404;2024-02-15T06:29:04;101178.84;;;18.79;60.67
13050;BME280;6591;51.446;5.404;2024-02-15T06:31:50;101182.53;;;18.78;60.71
13050;BME280;6591;51.446;5.404;2024-02-15T06:34:35;101168.31;;;18.76;60.91
13050;BME280;6591;51.446;5.404;2024-02-15T06:37:37;101174.91;;;18.72;60.71
13050;BME280;6591;51.446;5.404;2024-02-15T06:40:24;101178.47;;;18.73;60.74
13050;BME280;6591;51.446;5.404;2024-02-15T06:42:51;101181.88;;;18.75;60.90
13050;BME280;6591;51.446;5.404;2024-02-15T06:45:18;101173.81;;;18.75;60.96
13050;BME280;6591;51.446;5.404;2024-02-15T06:47:46;101187.06;;;18.78;60.94
13050;BME280;6591;51.446;5.404;2024-02-15T06:50:15;101186.19;;;18.77;60.97
13050;BME280;6591;51.446;5.404;2024-02-15T06:52:43;101191.47;;;18.79;60.88
13050;BME280;6591;51.446;5.404;2024-02-15T06:55:11;101191.34;;;18.80;61.10
13050;BME280;6591;51.446;5.404;2024-02-15T06:57:39;101193.91;;;18.82;61.05
13050;BME280;6591;51.446;5.404;2024-02-15T07:00:10;101193.91;;;18.82;61.03
13050;BME280;6591;51.446;5.404;2024-02-15T07:02:42;101200.06;;;18.84;61.03
13050;BME280;6591;51.446;5.404;2024-02-15T07:05:11;101198.19;;;18.84;61.25
13050;BME280;6591;51.446;5.404;2024-02-15T07:07:38;101195.50;;;18.84;61.20
13050;BME280;6591;51.446;5.404;2024-02-15T07:10:06;101196.38;;;18.85;61.25
13050;BME280;6591;51.446;5.404;2024-02-15T07:12:34;101175.84;;;18.84;60.99
13050;BME280;6591;51.446;5.404;2024-02-15T07:15:01;101176.69;;;18.84;61.02
13050;BME280;6591;51.446;5.404;2024-02-15T07:17:30;101160.53;;;18.84;61.20
13050;BME280;6591;51.446;5.404;2024-02-15T07:19:57;101156.00;;;18.85;61.09
13050;BME280;6591;51.446;5.404;2024-02-15T07:22:25;101162.16;;;18.87;61.14
13050;BME280;6591;51.446;5.404;2024-02-15T07:24:52;101158.50;;;18.88;61.19
13050;BME280;6591;51.446;5.404;2024-02-15T07:27:19;101177.19;;;18.89;61.27
13050;BME280;6591;51.446;5.404;2024-02-15T07:29:46;101178.91;;;18.90;61.39
13050;BME280;6591;51.446;5.404;2024-02-15T07:32:14;101181.41;;;18.93;61.49
13050;BME280;6591;51.446;5.404;2024-02-15T07:34:41;101183.84;;;18.96;61.22
13050;BME280;6591;51.446;5.404;2024-02-15T07:37:10;101186.44;;;18.98;61.47
13050;BME280;6591;51.446;5.404;2024-02-15T07:39:39;101187.16;;;19.00;61.42
13050;BME280;6591;51.446;5.404;2024-02-15T07:42:08;101196.94;;;19.01;61.38
13050;BME280;6591;51.446;5.404;2024-02-15T07:44:39;101201.47;;;19.00;61.41
13050;BME280;6591;51.446;5.404;2024-02-15T07:47:06;101195.97;;;19.02;61.52
13050;BME280;6591;51.446;5.404;2024-02-15T07:49:34;101188.66;;;19.04;61.56
13050;BME280;6591;51.446;5.404;2024-02-15T07:52:02;101189.28;;;19.08;61.50
13050;BME280;6591;51.446;5.404;2024-02-15T07:54:30;101184.66;;;19.10;61.48
13050;BME280;6591;51.446;5.404;2024-02-15T07:57:00;101194.41;;;19.11;61.35
13050;BME280;6591;51.446;5.404;2024-02-15T07:59:27;101189.91;;;19.11;61.29
13050;BME280;6591;51.446;5.404;2024-02-15T08:01:55;101197.00;;;19.12;61.41
13050;BME280;6591;51.446;5.404;2024-02-15T08:04:22;101198.72;;;19.13;61.60
13050;BME280;6591;51.446;5.404;2024-02-15T08:06:51;101188.72;;;19.15;61.56
13050;BME280;6591;51.446;5.404;2024-02-15T08:09:20;101186.03;;;19.15;61.49
13050;BME280;6591;51.446;5.404;2024-02-15T08:11:51;101181.38;;;19.17;61.40
13050;BME280;6591;51.446;5.404;2024-02-15T08:14:18;101184.06;;;19.17;61.42
13050;BME280;6591;51.446;5.404;2024-02-15T08:16:47;101185.78;;;19.18;61.67
13050;BME280;6591;51.446;5.404;2024-02-15T08:19:14;101185.53;;;19.21;61.60
13050;BME280;6591;51.446;5.404;2024-02-15T08:21:42;101172.81;;;19.23;61.79
13050;BME280;6591;51.446;5.404;2024-02-15T08:24:13;101178.97;;;19.25;61.97
13050;BME280;6591;51.446;5.404;2024-02-15T08:26:40;101177.84;;;19.28;61.83
13050;BME280;6591;51.446;5.404;2024-02-15T08:29:11;101166.97;;;19.29;61.92
13050;BME280;6591;51.446;5.404;2024-02-15T08:31:40;101160.47;;;19.32;61.57
13050;BME280;6591;51.446;5.404;2024-02-15T08:34:09;101164.78;;;19.34;61.68
13050;BME280;6591;51.446;5.404;2024-02-15T08:36:40;101164.53;;;19.37;61.79
13050;BME280;6591;51.446;5.404;2024-02-15T08:39:08;101169.94;;;19.37;61.45
13050;BME280;6591;51.446;5.404;2024-02-15T08:41:39;101163.56;;;19.38;61.14
13050;BME280;6591;51.446;5.404;2024-02-15T08:44:07;101161.63;;;19.40;61.62
13050;BME280;6591;51.446;5.404;2024-02-15T08:46:38;101166.03;;;19.41;61.71
13050;BME280;6591;51.446;5.404;2024-02-15T08:49:05;101166.03;;;19.41;61.61
13050;BME280;6591;51.446;5.404;2024-02-15T08:51:33;101157.81;;;19.43;61.54
13050;BME280;6591;51.446;5.404;2024-02-15T08:54:00;101158.69;;;19.43;61.66
13050;BME280;6591;51.446;5.404;2024-02-15T08:56:27;101160.44;;;19.44;61.46
13050;BME280;6591;51.446;5.404;2024-02-15T08:58:54;101151.41;;;19.45;61.34
13050;BME280;6591;51.446;5.404;2024-02-15T09:01:21;101152.25;;;19.46;61.54
13050;BME280;6591;51.446;5.404;2024-02-15T09:03:49;101158.25;;;19.50;61.59
13050;BME280;6591;51.446;5.404;2024-02-15T09:06:16;101152.59;;;19.53;61.63
13050;BME280;6591;51.446;5.404;2024-02-15T09:08:43;101159.50;;;19.57;61.48
13050;BME280;6591;51.446;5.404;2024-02-15T09:11:11;101155.59;;;19.61;61.94
13050;BME280;6591;51.446;5.404;2024-02-15T09:13:39;101153.38;;;19.66;61.91
13050;BME280;6591;51.446;5.404;2024-02-15T09:16:07;101160.13;;;19.71;62.03
13050;BME280;6591;51.446;5.404;2024-02-15T09:18:34;101156.81;;;19.79;61.99
13050;BME280;6591;51.446;5.404;2024-02-15T09:21:01;101150.94;;;19.85;61.91
13050;BME280;6591;51.446;5.404;2024-02-15T09:23:28;101154.03;;;19.92;61.93
13050;BME280;6591;51.446;5.404;2024-02-15T09:25:55;101161.53;;;19.99;61.92
13050;BME280;6591;51.446;5.404;2024-02-15T09:28:22;101162.72;;;20.06;62.05
13050;BME280;6591;51.446;5.404;2024-02-15T09:30:50;101158.56;;;20.13;61.79
13050;BME280;6591;51.446;5.404;2024-02-15T09:33:26;101156.34;;;20.18;61.61
13050;BME280;6591;51.446;5.404;2024-02-15T09:35:53;101158.56;;;20.24;61.79
13050;BME280;6591;51.446;5.404;2024-02-15T09:38:22;101150.97;;;20.29;61.30
13050;BME280;6591;51.446;5.404;2024-02-15T09:40:49;101156.88;;;20.35;61.04
13050;BME280;6591;51.446;5.404;2024-02-15T09:43:16;101154.88;;;20.37;60.91
13050;BME280;6591;51.446;5.404;2024-02-15T09:45:43;101156.59;;;20.38;60.59
13050;BME280;6591;51.446;5.404;2024-02-15T09:48:11;101152.69;;;20.42;60.87
13050;BME280;6591;51.446;5.404;2024-02-15T09:50:43;101141.03;;;20.41;60.68
13050;BME280;6591;51.446;5.404;2024-02-15T09:53:13;101150.84;;;20.42;60.34
13050;BME280;6591;51.446;5.404;2024-02-15T09:55:42;101154.41;;;20.43;60.41
13050;BME280;6591;51.446;5.404;2024-02-15T09:58:11;101147.28;;;20.42;60.48
13050;BME280;6591;51.446;5.404;2024-02-15T10:00:39;101151.59;;;20.44;60.51
13050;BME280;6591;51.446;5.404;2024-02-15T10:03:07;101149.63;;;20.46;60.66
13050;BME280;6591;51.446;5.404;2024-02-15T10:05:35;101153.91;;;20.49;60.63
13050;BME280;6591;51.446;5.404;2024-02-15T10:08:03;101151.78;;;20.52;60.82
13050;BME280;6591;51.446;5.404;2024-02-15T10:10:30;101148.72;;;20.57;60.58
13050;BME280;6591;51.446;5.404;2024-02-15T10:13:00;101152.63;;;20.64;60.79
13050;BME280;6591;51.446;5.404;2024-02-15T10:15:32;101142.31;;;20.69;60.73
13050;BME280;6591;51.446;5.404;2024-02-15T10:18:06;101144.50;;;20.75;60.58
13050;BME280;6591;51.446;5.404;2024-02-15T10:20:39;101144.59;;;20.85;61.11
13050;BME280;6591;51.446;5.404;2024-02-15T10:23:13;101144.09;;;20.91;60.74
13050;BME280;6591;51.446;5.404;2024-02-15T10:25:41;101155.25;;;20.97;60.74
13050;BME280;6591;51.446;5.404;2024-02-15T10:28:12;101149.19;;;21.05;60.84
13050;BME280;6591;51.446;5.404;2024-02-15T10:30:43;101148.56;;;21.12;60.53
13050;BME280;6591;51.446;5.404;2024-02-15T10:33:27;101149.91;;;21.18;60.63
13050;BME280;6591;51.446;5.404;2024-02-15T10:36:08;101145.56;;;21.27;60.96
13050;BME280;6591;51.446;5.404;2024-02-15T10:38:36;101141.09;;;21.37;60.38
13050;BME280;6591;51.446;5.404;2024-02-15T10:41:06;101149.13;;;21.48;60.95
13050;BME280;6591;51.446;5.404;2024-02-15T10:43:34;101148.31;;;21.57;60.85
13050;BME280;6591;51.446;5.404;2024-02-15T10:46:02;101140.44;;;21.65;60.46
13050;BME280;6591;51.446;5.404;2024-02-15T10:48:30;101138.63;;;21.75;60.52
13050;BME280;6591;51.446;5.404;2024-02-15T10:51:02;101128.84;;;21.84;59.88
13050;BME280;6591;51.446;5.404;2024-02-15T10:53:36;101137.16;;;21.92;59.98
13050;BME280;6591;51.446;5.404;2024-02-15T10:58:50;101132.97;;;22.09;59.57
13050;BME280;6591;51.446;5.404;2024-02-15T11:01:18;101132.41;;;22.15;60.00
13050;BME280;6591;51.446;5.404;2024-02-15T11:03:57;101127.47;;;22.20;59.50
13050;BME280;6591;51.446;5.404;2024-02-15T11:06:33;101135.16;;;22.24;59.41
13050;BME280;6591;51.446;5.404;2024-02-15T11:09:02;101131.22;;;22.28;59.17
13050;BME280;6591;51.446;5.404;2024-02-15T11:11:30;101116.69;;;22.29;59.09
13050;BME280;6591;51.446;5.404;2024-02-15T11:14:29;101115.09;;;22.27;59.35
13050;BME280;6591;51.446;5.404;2024-02-15T11:17:01;101114.25;;;22.36;59.22
13050;BME280;6591;51.446;5.404;2024-02-15T11:22:11;101104.06;;;22.49;59.82
13050;BME280;6591;51.446;5.404;2024-02-15T11:24:52;101106.91;;;22.57;59.72
13050;BME280;6591;51.446;5.404;2024-02-15T11:27:29;101108.06;;;22.64;59.55
13050;BME280;6591;51.446;5.404;2024-02-15T11:29:58;101106.97;;;22.76;60.13
13050;BME280;6591;51.446;5.404;2024-02-15T11:32:51;101103.41;;;22.86;60.04
13050;BME280;6591;51.446;5.404;2024-02-15T11:35:26;101103.97;;;22.99;60.16
13050;BME280;6591;51.446;5.404;2024-02-15T11:37:57;101092.44;;;23.06;59.82
13050;BME280;6591;51.446;5.404;2024-02-15T11:42:59;101095.97;;;23.26;59.69
13050;BME280;6591;51.446;5.404;2024-02-15T11:45:28;101084.97;;;23.37;60.12
13050;BME280;6591;51.446;5.404;2024-02-15T11:48:11;101080.41;;;23.47;59.72
13050;BME280;6591;51.446;5.404;2024-02-15T11:50:40;101074.81;;;23.58;60.06
13050;BME280;6591;51.446;5.404;2024-02-15T11:53:08;101070.06;;;23.70;60.07
13050;BME280;6591;51.446;5.404;2024-02-15T11:55:40;101073.72;;;23.79;59.48
13050;BME280;6591;51.446;5.404;2024-02-15T11:58:09;101061.97;;;23.88;59.49
13050;BME280;6591;51.446;5.404;2024-02-15T12:00:37;101062.63;;;23.99;59.61
13050;BME280;6591;51.446;5.404;2024-02-15T12:03:24;101064.63;;;24.07;59.71
13050;BME280;6591;51.446;5.404;2024-02-15T12:06:27;101067.84;;;24.20;59.51
13050;BME280;6591;51.446;5.404;2024-02-15T12:09:18;101060.34;;;24.32;59.79
13050;BME280;6591;51.446;5.404;2024-02-15T12:12:05;101055.38;;;24.45;59.70
13050;BME280;6591;51.446;5.404;2024-02-15T12:15:02;101056.16;;;24.55;59.44
13050;BME280;6591;51.446;5.404;2024-02-15T12:17:48;101050.34;;;24.68;59.31
13050;BME280;6591;51.446;5.404;2024-02-15T12:20:34;101040.13;;;24.79;59.95
13050;BME280;6591;51.446;5.404;2024-02-15T12:23:02;101039.06;;;24.90;59.23
13050;BME280;6591;51.446;5.404;2024-02-15T12:25:31;101041.81;;;24.98;58.71
13050;BME280;6591;51.446;5.404;2024-02-15T12:28:01;101035.75;;;25.04;58.36
13050;BME280;6591;51.446;5.404;2024-02-15T12:30:35;101022.03;;;25.06;57.84
13050;BME280;6591;51.446;5.404;2024-02-15T12:33:13;101023.56;;;25.08;57.50
13050;BME280;6591;51.446;5.404;2024-02-15T12:35:47;101014.25;;;25.11;58.05
13050;BME280;6591;51.446;5.404;2024-02-15T12:38:14;101015.94;;;25.12;57.40
13050;BME280;6591;51.446;5.404;2024-02-15T12:40:45;101017.81;;;25.11;57.25
13050;BME280;6591;51.446;5.404;2024-02-15T12:43:14;101020.53;;;25.11;57.50
13050;BME280;6591;51.446;5.404;2024-02-15T12:45:42;101016.09;;;25.10;56.89
13050;BME280;6591;51.446;5.404;2024-02-15T12:48:10;101008.97;;;25.09;57.24
13050;BME280;6591;51.446;5.404;2024-02-15T12:50:42;101014.38;;;25.09;57.39
13050;BME280;6591;51.446;5.404;2024-02-15T12:53:09;101005.22;;;25.10;57.04
13050;BME280;6591;51.446;5.404;2024-02-15T12:55:39;101006.94;;;25.11;56.87
13050;BME280;6591;51.446;5.404;2024-02-15T12:58:13;101005.75;;;25.14;56.87
13050;BME280;6591;51.446;5.404;2024-02-15T13:00:42;100999.84;;;25.18;57.04
13050;BME280;6591;51.446;5.404;2024-02-15T13:03:10;101001.53;;;25.19;56.88
13050;BME280;6591;51.446;5.404;2024-02-15T13:05:39;100995.97;;;25.21;56.53
13050;BME280;6591;51.446;5.404;2024-02-15T13:08:07;101000.38;;;25.22;56.61
13050;BME280;6591;51.446;5.404;2024-02-15T13:10:42;100983.53;;;25.18;56.66
13050;BME280;6591;51.446;5.404;2024-02-15T13:13:09;100982.66;;;25.18;56.66
13050;BME280;6591;51.446;5.404;2024-02-15T13:15:37;100979.13;;;25.17;56.51
13050;BME280;6591;51.446;5.404;2024-02-15T13:18:06;100973.69;;;25.17;56.75
13050;BME280;6591;51.446;5.404;2024-02-15T13:20:37;100966.34;;;25.18;56.85